Abingdon, VA (24210)

8:40 PM EDT on August 26, 2016 (GMT -0400)
Country Club Estates | | Change Station

Elev 1990 ft 36.69 °N, 81.97 °W | Updated 5 seconds ago

Clear
Clear
76.1 °F
Feels Like 77 °F
N
0.0
Wind Variable Wind from SSE
Gusts 0.0 mph

Today
High -- | Low -- °F
--% Chance of Precip.
Yesterday
High -- | Low -- °F
Precip. -- in
Pressure 30.17 in
Visibility 10.0 miles
Clouds Clear
Heat Index 77 °F
Dew Point 71 °F
Humidity 83%
Rainfall 0.00 in
Snow Depth Not available.
6:54 AM 8:03 PM
Waning Crescent, 29% visible
METAR KVJI 270035Z AUTO 00000KT 10SM CLR 28/20 A3017 RMK AO2 T02780196
Pressure 30.17 in
Visibility 10.0 miles
Clouds Clear
Heat Index 77 °F
Dew Point 71 °F
Humidity 83%
Rainfall 0.00 in
Snow Depth Not available.
6:54 AM 8:03 PM
Waning Crescent, 29% visible
METAR KVJI 270035Z AUTO 00000KT 10SM CLR 28/20 A3017 RMK AO2 T02780196

10-Day Weather Forecast

Almanac

Astronomy

Aug. 26, 2016 Rise Set
Actual Time
Civil Twilight
Nautical Twilight
Astronomical Twilight
Moon
Length of Visible Light
Length of Day
Tomorrow will be .
, % of the Moon is Illuminated

Today's Extremes

State Highs State Lows

Community

WunderPhotos

Upload Photos

1,935,259 photos uploaded!

WunderBlog® & News

Nearby

Air Quality

  Air Quality AQ Index Pollutant
Not available.

Snow Depth

Station Depth Elevation

Earthquake Activity

City Distance Mag. Time & Date
Minimum magnitude displayed is 2.5.

Coastal Water Temperatures

Place Temperature

Stations

Nearby Weather Stations

Station Location Temp. Windchill Dew Point Humidity Wind Precip. Elev Updated Type
                   

Watches & Warnings

There are currently no watches in effect.